createdAt,value
2017-10-07T00:01:09.602Z,98521.80
2017-10-07T00:03:37.230Z,98522.88
2017-10-07T00:06:04.820Z,98520.98
2017-10-07T00:08:33.273Z,98517.20
2017-10-07T00:11:00.829Z,98526.48
2017-10-07T00:13:29.362Z,98532.66
2017-10-07T00:15:57.871Z,98490.83
2017-10-07T00:18:26.346Z,98542.50
2017-10-07T00:20:54.598Z,98524.63
2017-10-07T00:23:22.198Z,98538.99
2017-10-07T00:25:49.776Z,98542.64
2017-10-07T00:28:17.350Z,98547.88
2017-10-07T00:30:46.947Z,98545.98
2017-10-07T00:33:15.524Z,98540.86
2017-10-07T00:35:44.302Z,98535.38
2017-10-07T00:38:13.045Z,98541.69
2017-10-07T00:40:40.663Z,98545.59
2017-10-07T00:43:08.997Z,98546.39
2017-10-07T00:45:36.514Z,98546.27
2017-10-07T00:48:04.147Z,98541.45
2017-10-07T00:50:31.740Z,98541.45
2017-10-07T00:52:59.303Z,98479.86
2017-10-07T00:55:26.944Z,98538.61
2017-10-07T00:57:54.516Z,98541.31
2017-10-07T01:00:22.135Z,98516.84
2017-10-07T01:02:50.433Z,98536.20
2017-10-07T01:05:18.033Z,98539.84
2017-10-07T01:07:45.685Z,98535.27
2017-10-07T01:10:14.141Z,98531.23
2017-10-07T01:12:42.659Z,98532.43
2017-10-07T01:15:10.265Z,98534.32
2017-10-07T01:17:37.989Z,98524.62
2017-10-07T01:20:05.571Z,98522.86
2017-10-07T01:22:33.107Z,98523.41
2017-10-07T01:25:00.845Z,98519.94
2017-10-07T01:27:28.413Z,98519.27
2017-10-07T01:29:56.820Z,98513.09
2017-10-07T01:32:24.376Z,98516.04
2017-10-07T01:34:52.796Z,98510.66
2017-10-07T01:37:20.398Z,98508.64
2017-10-07T01:39:48.123Z,98508.48
2017-10-07T01:42:15.713Z,98512.66
2017-10-07T01:44:43.253Z,98510.25
2017-10-07T01:47:10.901Z,98513.33
2017-10-07T01:49:38.496Z,98500.28
2017-10-07T01:52:06.074Z,98517.64
2017-10-07T01:54:33.699Z,98521.66
2017-10-07T01:57:01.269Z,98521.81
2017-10-07T01:59:28.966Z,98527.84
2017-10-07T02:01:56.626Z,98521.12
2017-10-07T02:04:24.228Z,98523.42
2017-10-07T02:06:52.330Z,98529.60
2017-10-07T02:09:19.933Z,98523.81
2017-10-07T02:11:48.051Z,98528.92
2017-10-07T02:14:16.214Z,98533.23
2017-10-07T02:16:43.810Z,98537.53
2017-10-07T02:19:11.423Z,98487.63
2017-10-07T02:21:38.948Z,98525.45
2017-10-07T02:24:06.623Z,98521.53
2017-10-07T02:26:34.134Z,98528.15
2017-10-07T02:29:02.029Z,98520.86
2017-10-07T02:31:29.617Z,98518.88
2017-10-07T02:33:57.087Z,98516.69
2017-10-07T02:36:24.676Z,98512.23
2017-10-07T02:38:52.290Z,98515.55
2017-10-07T02:41:20.734Z,98514.22
2017-10-07T02:43:48.415Z,98511.92
2017-10-07T02:46:16.058Z,98518.11
2017-10-07T02:48:45.059Z,98515.98
2017-10-07T02:51:13.488Z,98509.81
2017-10-07T02:53:41.085Z,98503.32
2017-10-07T02:56:08.678Z,98499.55
2017-10-07T02:58:36.238Z,98494.86
2017-10-07T03:01:03.916Z,98499.19
2017-10-07T03:03:31.508Z,98497.98
2017-10-07T03:05:59.809Z,98499.21
2017-10-07T03:08:27.469Z,98494.09
2017-10-07T03:10:54.986Z,98497.96
2017-10-07T03:13:22.547Z,98494.06
2017-10-07T03:15:50.058Z,98490.45
2017-10-07T03:18:17.658Z,98495.39
2017-10-07T03:20:45.548Z,98498.89
2017-10-07T03:23:14.039Z,98500.24
2017-10-07T03:25:41.583Z,98502.14
2017-10-07T03:28:09.214Z,98503.62
2017-10-07T03:30:37.585Z,98503.89
2017-10-07T03:33:05.193Z,98493.81
2017-10-07T03:35:37.299Z,98495.30
2017-10-07T03:38:04.914Z,98492.05
2017-10-07T03:40:33.836Z,98500.13
2017-10-07T03:43:02.748Z,98492.04
2017-10-07T03:45:30.378Z,98488.16
2017-10-07T03:47:59.009Z,98487.20
2017-10-07T03:50:28.395Z,98487.48
2017-10-07T03:52:55.980Z,98492.59
2017-10-07T03:55:25.500Z,98485.45
2017-10-07T03:57:53.076Z,98489.71
2017-10-07T04:00:21.357Z,98490.00
2017-10-07T04:02:49.022Z,98490.88
2017-10-07T04:05:16.577Z,98490.67
2017-10-07T04:07:44.149Z,98486.53
2017-10-07T04:10:12.787Z,98487.81
2017-10-07T04:12:40.453Z,98477.14
2017-10-07T04:15:08.854Z,98476.80
2017-10-07T04:17:36.498Z,98479.08
2017-10-07T04:20:04.156Z,98484.43
2017-10-07T04:22:31.731Z,98484.16
2017-10-07T04:24:59.300Z,98494.13
2017-10-07T04:27:27.695Z,98493.03
2017-10-07T04:29:55.312Z,98495.25
2017-10-07T04:32:23.118Z,98488.91
2017-10-07T04:34:51.822Z,98491.99
2017-10-07T04:37:19.448Z,98485.22
2017-10-07T04:39:46.968Z,98491.78
2017-10-07T04:42:15.157Z,98489.76
2017-10-07T04:44:42.721Z,98487.27
2017-10-07T04:47:14.153Z,98493.30
2017-10-07T04:49:43.617Z,98489.03
2017-10-07T04:52:11.717Z,98486.09
2017-10-07T04:54:39.346Z,98485.85
2017-10-07T04:57:06.921Z,98494.06
2017-10-07T04:59:35.445Z,98496.93
2017-10-07T05:02:02.998Z,98496.17
2017-10-07T05:04:31.497Z,98496.72
2017-10-07T05:06:59.112Z,98499.17
2017-10-07T05:09:26.666Z,98507.52
2017-10-07T05:11:54.250Z,98515.31
2017-10-07T05:14:22.702Z,98509.02
2017-10-07T05:16:50.928Z,98509.27
2017-10-07T05:19:18.415Z,98511.31
2017-10-07T05:21:45.870Z,98512.81
2017-10-07T05:24:13.371Z,98510.92
2017-10-07T05:26:40.847Z,98515.63
2017-10-07T05:29:08.404Z,98502.47
2017-10-07T05:31:35.899Z,98508.38
2017-10-07T05:34:03.396Z,98507.73
2017-10-07T05:36:30.879Z,98506.34
2017-10-07T05:38:58.871Z,98516.02
2017-10-07T05:41:26.407Z,98512.94
2017-10-07T05:43:53.891Z,98518.41
2017-10-07T05:46:21.382Z,98514.52
2017-10-07T05:48:48.870Z,98511.98
2017-10-07T05:51:16.438Z,98511.71
2017-10-07T05:53:43.988Z,98518.98
2017-10-07T05:56:11.507Z,98517.99
2017-10-07T05:58:39.069Z,98513.48
2017-10-07T06:01:06.574Z,98512.68
2017-10-07T06:03:34.076Z,98514.03
2017-10-07T06:06:01.856Z,98503.42
2017-10-07T06:08:29.377Z,98512.55
2017-10-07T06:10:57.035Z,98511.33
2017-10-07T06:13:24.555Z,98505.85
2017-10-07T06:15:52.076Z,98498.74
2017-10-07T06:18:19.592Z,98502.50
2017-10-07T06:20:47.423Z,98506.53
2017-10-07T06:23:15.324Z,98497.40
2017-10-07T06:25:42.916Z,98496.85
2017-10-07T06:28:10.507Z,98501.25
2017-10-07T06:30:38.075Z,98500.38
2017-10-07T06:33:05.605Z,98501.35
2017-10-07T06:35:33.210Z,98495.45
2017-10-07T06:38:01.798Z,98492.84
2017-10-07T06:40:29.320Z,98490.95
2017-10-07T06:42:56.896Z,98481.41
2017-10-07T06:45:24.453Z,98482.80
2017-10-07T06:47:51.996Z,98482.83
2017-10-07T06:50:19.733Z,98488.39
2017-10-07T06:52:47.308Z,98491.80
2017-10-07T06:55:14.827Z,98492.75
2017-10-07T06:57:42.720Z,98494.22
2017-10-07T07:00:10.197Z,98487.70
2017-10-07T07:02:37.705Z,98481.63
2017-10-07T07:05:05.229Z,98480.23
2017-10-07T07:07:32.703Z,98477.36
2017-10-07T07:10:00.281Z,98481.04
2017-10-07T07:12:28.671Z,98482.38
2017-10-07T07:14:56.129Z,98494.59
2017-10-07T07:17:24.645Z,98492.80
2017-10-07T07:19:52.369Z,98497.39
2017-10-07T07:22:19.908Z,98497.48
2017-10-07T07:24:47.501Z,98497.20
2017-10-07T07:27:14.997Z,98502.27
2017-10-07T07:29:43.056Z,98503.60
2017-10-07T07:32:10.980Z,98502.42
2017-10-07T07:34:38.522Z,98498.57
2017-10-07T07:37:06.068Z,98495.86
2017-10-07T07:39:33.605Z,98499.03
2017-10-07T07:42:01.127Z,98499.42
2017-10-07T07:44:32.971Z,98493.19
2017-10-07T07:47:08.279Z,98494.38
2017-10-07T07:49:48.139Z,98495.93
2017-10-07T07:52:18.416Z,98498.23
2017-10-07T07:54:53.192Z,98503.43
2017-10-07T07:57:24.884Z,98500.11
2017-10-07T07:59:52.370Z,98485.41
2017-10-07T08:02:19.954Z,98493.76
2017-10-07T08:04:47.675Z,98496.27
2017-10-07T08:07:15.193Z,98488.25
2017-10-07T08:09:42.718Z,98491.55
2017-10-07T08:12:10.269Z,98483.25
2017-10-07T08:14:38.653Z,98487.04
2017-10-07T08:17:06.177Z,98483.43
2017-10-07T08:19:34.448Z,98471.97
2017-10-07T08:22:02.763Z,98476.67
2017-10-07T08:24:30.540Z,98479.78
2017-10-07T08:26:58.817Z,98477.37
2017-10-07T08:29:26.327Z,98468.92
2017-10-07T08:31:53.883Z,98476.83
2017-10-07T08:34:22.199Z,98463.45
2017-10-07T08:36:49.663Z,98461.93
2017-10-07T08:39:17.184Z,98459.45
2017-10-07T08:41:45.711Z,98465.67
2017-10-07T08:44:13.213Z,98463.88
2017-10-07T08:46:40.696Z,98455.42
2017-10-07T08:49:08.154Z,98456.48
2017-10-07T08:51:35.705Z,98457.92
2017-10-07T08:54:03.177Z,98453.59
2017-10-07T08:56:30.683Z,98449.22
2017-10-07T08:58:58.160Z,98440.82
2017-10-07T09:01:25.650Z,98447.59
2017-10-07T09:03:53.147Z,98438.67
2017-10-07T09:06:20.687Z,98434.43
2017-10-07T09:08:48.240Z,98438.16
2017-10-07T09:11:15.749Z,98444.95
2017-10-07T09:13:43.267Z,98445.67
2017-10-07T09:16:10.968Z,98450.97
2017-10-07T09:18:40.235Z,98438.83
2017-10-07T10:04:03.925Z,98394.67
2017-10-07T10:06:34.351Z,98389.48
2017-10-07T10:09:19.905Z,98397.00
2017-10-07T10:11:59.527Z,98385.92
2017-10-07T10:20:12.913Z,98389.77
2017-10-07T10:22:44.171Z,98391.44
2017-10-07T10:33:49.479Z,98385.41
2017-10-07T10:36:24.150Z,98377.23
2017-10-07T14:48:20.205Z,98039.30
2017-10-07T14:51:02.294Z,98032.05
2017-10-07T14:53:31.824Z,98031.72
2017-10-07T14:56:27.836Z,98023.80
2017-10-07T14:58:55.508Z,98028.25
2017-10-07T15:01:23.309Z,98020.04
2017-10-07T15:03:52.186Z,98012.11
2017-10-07T15:06:19.773Z,98013.70
2017-10-07T15:14:28.694Z,98012.69
2017-10-07T15:16:57.694Z,98008.03
2017-10-07T15:19:25.505Z,98004.72
2017-10-07T15:22:11.528Z,98008.83
2017-10-07T16:39:14.204Z,97909.80
2017-10-07T16:57:55.017Z,97888.21
2017-10-07T17:00:30.856Z,97875.48
2017-10-07T17:19:36.494Z,97874.06
2017-10-07T17:25:38.107Z,97871.84
2017-10-07T17:42:09.140Z,97862.55
2017-10-07T18:48:37.445Z,97749.73
2017-10-07T18:51:09.603Z,97831.54
2017-10-07T18:53:44.536Z,97826.67
2017-10-07T18:56:16.539Z,97825.12
2017-10-07T18:58:49.738Z,97834.07
2017-10-07T19:01:25.055Z,97769.19
2017-10-07T19:03:58.812Z,97823.74
2017-10-07T19:06:30.766Z,97822.84
2017-10-07T19:09:11.885Z,97827.03
2017-10-07T20:28:11.191Z,97765.88
2017-10-07T20:30:40.648Z,97763.69
2017-10-07T20:33:08.368Z,97762.66
2017-10-07T20:35:37.181Z,97759.63
2017-10-07T20:38:04.770Z,97752.38
2017-10-07T20:40:36.468Z,97766.88
2017-10-07T20:43:04.420Z,97778.29
2017-10-07T20:45:31.998Z,97776.00
2017-10-07T20:48:00.127Z,97777.94
2017-10-07T20:50:29.287Z,97755.30
2017-10-07T20:52:57.186Z,97780.70
2017-10-07T20:55:25.057Z,97783.87
2017-10-07T20:57:52.777Z,97774.94
2017-10-07T21:00:20.395Z,97781.56
2017-10-07T21:02:48.182Z,97800.52
2017-10-07T21:05:16.078Z,97803.66
2017-10-07T21:07:43.847Z,97807.49
2017-10-07T21:10:11.923Z,97801.78
2017-10-07T21:12:39.570Z,97806.81
2017-10-07T21:15:07.198Z,97790.87
2017-10-07T21:17:35.264Z,97797.32
2017-10-07T21:20:03.180Z,97793.59
2017-10-07T21:22:30.954Z,97782.44
2017-10-07T21:24:58.526Z,97769.85
2017-10-07T21:27:26.144Z,97772.15
2017-10-07T21:29:58.883Z,97767.11
2017-10-07T21:32:26.700Z,97769.84
2017-10-07T21:34:54.493Z,97762.10
2017-10-07T21:37:23.492Z,97756.71
2017-10-07T21:39:51.149Z,97745.34
2017-10-07T21:42:19.707Z,97735.27
2017-10-07T21:44:47.566Z,97742.59
2017-10-07T21:47:15.686Z,97743.45
2017-10-07T21:49:45.778Z,97745.94
2017-10-07T21:52:18.821Z,97741.73
2017-10-07T21:54:47.653Z,97739.52
2017-10-07T21:57:20.650Z,97729.74
2017-10-07T21:59:48.588Z,97728.34
2017-10-07T22:05:03.042Z,97723.33
2017-10-07T22:07:36.924Z,97720.55
2017-10-07T22:10:09.639Z,97713.56
2017-10-07T22:15:43.403Z,97699.41
2017-10-07T22:18:16.442Z,97699.41
2017-10-07T22:21:08.370Z,97692.91
2017-10-07T22:23:38.363Z,97680.98
2017-10-07T22:26:08.095Z,97693.47
2017-10-07T22:28:39.235Z,97694.86
2017-10-07T22:31:08.386Z,97694.44
2017-10-07T22:33:36.989Z,97692.27
2017-10-07T22:36:07.007Z,97693.01
2017-10-07T22:38:34.929Z,97690.87
2017-10-07T22:41:02.640Z,97688.59
2017-10-07T22:43:30.940Z,97687.88
2017-10-07T22:45:58.887Z,97680.69
2017-10-07T22:48:30.270Z,97683.83
2017-10-07T22:51:11.816Z,97681.70
2017-10-07T22:56:30.721Z,97687.80
2017-10-07T23:04:33.897Z,97678.12
2017-10-07T23:07:01.538Z,97674.92
2017-10-07T23:09:32.951Z,97678.63
2017-10-07T23:21:19.802Z,97708.83
2017-10-07T23:23:48.181Z,97713.70
2017-10-07T23:26:15.931Z,97714.39
2017-10-07T23:28:45.308Z,97714.58
2017-10-07T23:31:21.323Z,97706.86
2017-10-07T23:36:29.915Z,97715.34
2017-10-07T23:39:00.465Z,97713.45
2017-10-07T23:41:30.973Z,97708.08
2017-10-07T23:43:58.687Z,97698.10
2017-10-07T23:46:27.504Z,97696.07
2017-10-07T23:48:55.803Z,97689.36
2017-10-07T23:51:23.560Z,97682.55
2017-10-07T23:53:52.026Z,97681.33
2017-10-07T23:56:20.215Z,97674.41
2017-10-07T23:58:48.144Z,97677.64
